Immagine casuale
Testata Regione Lazio ARSIAL SIARL

Ultima Misura Rilevata

Temperatura, Umidità, Pioggia, Pressione Radiazione Solare, Venti, Evapotraspirazione, ecc.
Temperature diurne e notturne Direzione vento Legenda
Prov Stazione Data TMin TMed TMax UMed Pioggia PMed
FR ALATRI Basciano 15/06/2021 15,4 21 27,9 70 0 1.016
FR ALVITO Az. Ist. S. Benedetto 15/06/2021 9,8 19,7 27,6 70 0 1.016
FR ANAGNI La Gloria 15/06/2021 13,3 20,7 27,9 76 0,2 1.016
FR ARPINO Vigne Piane 15/06/2021 15 20,2 27,9 64 0 1.020
FR BOVILLE ERNICA Sasso 15/06/2021 14,3 22 30,3 70 0 1.017
FR CECCANO C.da Passo del Cardinale 15/06/2021 13,9 21,4 28 78 0 ----
FR ESPERIA Modale 15/06/2021 13,6 21,6 30,9 72 0,2 1.019
FR PASTENA Acero 15/06/2021 10,8 20,3 29 72 0,2 1.017
FR PIGLIO Civitella 15/06/2021 12,9 20 28,6 80 0,2 1.015
FR PONTECORVO Melfi di Sotto 15/06/2021 14,6 21,6 29,6 71 0,2 ----
FR S. ELIA FIUMERAPIDO Portella 15/06/2021 13,8 21,9 30,8 60 0 1.016
FR S. GIORGIO A LIRI Porto 15/06/2021 12,6 21,8 30,8 73 0,2 1.020
FR SGURGOLA Campo Lungo 15/06/2021 15,9 22,4 29,8 78 0,4 ----
FR VALLECORSA Serbatoio comunale 15/06/2021 14,9 19,9 27,2 73 0,2 1.016
LT APRILIA Le Ferriere 15/06/2021 17,3 22,1 27,6 73 0 1.016
LT CISTERNA B.go Carso 15/06/2021 15,1 21,2 26 74 0 ----
LT CISTERNA Doganella di Ninfa 15/06/2021 15,6 22,2 28,4 70 0 1.016
LT CORI Portone 15/06/2021 16,7 22,5 28,9 68 0 1.016
LT FONDI Capratica 15/06/2021 14,7 21,8 28,8 70 0 1.017
LT FORMIA Loc. Gianola 15/06/2021 13,7 21,5 27,6 69 0,2 ----
LT ITRI Valle Quercia 15/06/2021 15,9 21,3 26,5 61 0 1.016
LT MAENZA Casacotta 15/06/2021 15,8 21,4 27,4 75 0 1.015
LT MINTURNO Pulcherini 15/06/2021 18 22,7 28,2 58 0 1.015
LT PONTINIA Cotarda 15/06/2021 16 22,3 29,8 75 0,2 1.017
LT SABAUDIA Acquaviva 15/06/2021 16,1 21,5 26,7 74 0 1.017
LT SONNINO Frasso 15/06/2021 17,6 22,7 29,5 79 0 1.016
RI ACCUMOLI Terracino 15/06/2021 13 17,4 22,8 49 0 1.018
RI BORGOVELINO Ponte Basso 15/06/2021 13,6 20,5 29,1 66 0 1.016
RI CANTALUPO S. Francesco 15/06/2021 12,4 21,4 29,1 73 0 ----
RI CASTEL DI TORA Monte di Tora 15/06/2021 13,9 19,9 26,8 71 0 1.015
RI CASTELNUOVO FARFA C. Spadone 15/06/2021 16,8 23,2 29,6 65 0 ----
RI CONFIGNI Portella 15/06/2021 16 21,9 29,7 65 0 1.016
RI FARA SABINA Canneto 15/06/2021 17,7 23 29,7 61 0 1.015
RI FARA SABINA Sant'Andrea 15/06/2021 17,6 22,8 28,6 69 0 ----
RI MONTELEONE S. Prato Camino 15/06/2021 13,4 20,8 29,7 70 0 1.018
RI MONTOPOLI IN SABINA Colle Arcone 15/06/2021 16,9 22,4 29,7 75 0 ----
RI MONTOPOLI IN SABINA Villa Caprola 15/06/2021 16,2 23,9 31,3 84 0 ----
RI POGGIO CATINO Pastine 15/06/2021 16,3 22,6 29,3 62 0 ----
RI POGGIO NATIVO Casali 15/06/2021 16,6 21,4 26,6 70 0 ----
RI RIETI Piana di Rieti 15/06/2021 11,8 20,8 29,1 69 0 1.019
RI SCANDRIGLIA Ponticelli 15/06/2021 15,7 21,3 26,7 71 0 ----
RM AGOSTA La Cisterna 15/06/2021 12,7 19 28 82 0,2 1.018
RM BRACCIANO Prato Pianciano 15/06/2021 16,8 22,4 29,2 78 0 1.017
RM CANALE MONTERANO Monte Virginio 15/06/2021 13,6 20,3 28 76 0 1.017
RM CERVETERI Campo di Mare 15/06/2021 19,1 23,5 26,5 79 0 ----
RM CIVITELLA S.PAOLO Le Cese 15/06/2021 15,5 22,1 30 72 0 1.014
RM FIUMICINO Maccarese 15/06/2021 17,3 22,8 27,6 74 0 1.016
RM FIUMICINO Testa di Lepre 15/06/2021 18,3 23,2 28,6 71 0 ----
RM FORMELLO Perazzeta 15/06/2021 16,8 22,6 27,7 72 0 ----
RM FRASCATI Prata Porci 15/06/2021 15,2 22,1 28,7 71 0 1.017
RM GENAZZANO Coop. La Sonnina 15/06/2021 14,6 21,2 26,9 74 0 1.017
RM GROTTAFERRATA Valle Marciana 15/06/2021 16,7 21,9 27,5 70 0 1.016
RM LADISPOLI Palo Laziale 15/06/2021 18,2 22,8 25,6 76 0 1.018
RM LICENZA Colle Franco 15/06/2021 13,7 19,9 27,5 71 0 1.015
RM MARCELLINA V. Campetella 15/06/2021 15,2 22,3 29,1 72 0 ----
RM MARINO Gotto d'Oro 15/06/2021 18,4 22,5 26,9 70 0 1.018
RM MONTECOMPATRI Colle Mattia 15/06/2021 15,6 21,9 28 72 0 1.018
RM MONTECOMPATRI Pantano Borghese 15/06/2021 15 22,7 30,9 72 0 1.015
RM MONTELIBRETTI Bruciati 15/06/2021 14,3 22,7 30,3 71 0 ----
RM MONTEPORZIO Camaldoli 15/06/2021 13,8 18,8 24,6 81 0 1.018
RM MONTEROTONDO Grotta Marozza 15/06/2021 16,1 22,7 29,3 72 0 1.017
RM PALOMBARA Fonte Grande 15/06/2021 12,9 21,5 29,2 65 0 ----
RM ROMA Ponte di Nona 15/06/2021 18 23,8 29,2 74 0 1.016
RM ROMA Via Lanciani 38 15/06/2021 20,9 24,4 27,9 65 0 1.015
RM S. GREGORIO C. Faustiniano 15/06/2021 16,2 21,9 29,2 68 0 1.013
RM VELLETRI Cantina Sperimentale 15/06/2021 16 20,9 25,9 71 0 1.017
RM VELLETRI Prato Lungo 15/06/2021 16,3 22 26,6 66 0 ----
RM ZAGAROLO Santa Apollara 15/06/2021 17,5 22,8 28,4 71 0 ----
VT ACQUAPENDENTE Falconiera 15/06/2021 12,9 20,7 29,4 78 0,2 1.018
VT BAGNOREGIO Castell Cellesi 15/06/2021 17,4 21,8 28,5 63 0 ----
VT BASSANO R. Piano Mola 15/06/2021 15,8 20,6 26,4 81 0 1.019
VT BLERA Puntoni 15/06/2021 16,8 22,1 27,8 77 0 1.016
VT BOLSENA Capone 15/06/2021 15,9 24,2 33,4 62 0 1.017
VT BOLSENA Rentica 15/06/2021 16,7 22,5 28,6 66 0 ----
VT CANINO Diga Timone 15/06/2021 16,1 22,4 28,9 82 0 1.020
VT CANINO Pianacce 15/06/2021 16,4 23 28,7 74 0 1.017
VT CANINO San Valeriano 15/06/2021 18,8 22,9 28 71 0 ----
VT CELLENO Acquaforte 15/06/2021 15 22 28,7 74 0 ----
VT CORCHIANO Pantalone 15/06/2021 13,4 21,7 30,1 72 0 1.017
VT FARNESE Gressa 15/06/2021 17,5 21,7 26 71 0 ----
VT FARNESE Pian di Sala 15/06/2021 13,3 20,2 27 87 0 ----
VT GROTTE DI CASTRO Borghetto 15/06/2021 14,6 21,5 28,1 75 0 1.017
VT GROTTE DI CASTRO Purgatorio 15/06/2021 14,8 21,9 30,8 72 0,2 1.015
VT LATERA Centro Florovivaistico 15/06/2021 14,3 21,3 28,5 78 0 1.020
VT MONTALTO Le Murelle 15/06/2021 18,3 22,8 27 78 0 1.017
VT MONTALTO Pescia Romana 15/06/2021 18,5 23,4 28 78 0 1.016
VT MONTEFIASCONE Commenda 15/06/2021 16,7 22,6 29,2 74 0 ----
VT RONCIGLIONE Ponterotto 15/06/2021 15 21,9 27,8 72 0 ----
VT SORIANO CIMINO Pantane 15/06/2021 12,2 21 31 70 0 1.017
VT SORIANO CIMINO Poggio di Chia 15/06/2021 13,7 22 29,9 72 0 ----
VT TARQUINIA Portaccia 15/06/2021 18 23,5 27,7 78 0 ----
VT TUSCANIA Montebello 15/06/2021 17,4 21,6 26,1 74 0 ----
VT VETRALLA Marchionato 15/06/2021 16,1 22 27,5 86 0 ----
VT VITERBO Pisello 15/06/2021 16,3 21,8 27,5 75 0 ----
N.D. = Dati Non Disponibili
---- = Sensore non presente

Le misure esposte sono grezze, ovvero non sono state validate.